Time;durP1;ratioP1;P1;durP2;ratioP2;P2;SDS_P1;SDS_P2;PMS_P1;PMS_P2;Temp;Humidity;BMP_temperature;BMP_pressure;BME280_temperature;BME280_humidity;BME280_pressure;Samples;Min_cycle;Max_cycle;Signal;HPM_P1;HPM_P2
2023/10/24 00:00:35;;;;;;;;;;;13.00;99.90;;;;;;5035710;28;19921;-77
2023/10/24 00:03:02;;;;;;;;;;;13.10;99.90;;;;;;5047451;28;20384;-77
2023/10/24 00:05:30;;;;;;;;;;;13.00;99.90;;;;;;5030741;28;19921;-77
2023/10/24 00:07:58;;;;;;;;;;;13.10;99.90;;;;;;5033114;28;19925;-77
2023/10/24 00:10:26;;;;;;;;;;;13.10;99.90;;;;;;5050838;28;19974;-78
2023/10/24 00:12:54;;;;;;;;;;;13.10;99.90;;;;;;5049210;28;19927;-78
2023/10/24 00:15:21;;;;;;;;;;;13.10;99.90;;;;;;5044540;28;20011;-77
2023/10/24 00:17:51;;;;;;;;;;;13.20;99.90;;;;;;5050567;28;19931;-77
2023/10/24 00:20:19;;;;;;;;;;;13.20;99.90;;;;;;5045922;28;20342;-77
2023/10/24 00:22:46;;;;;;;;;;;13.30;99.90;;;;;;5030799;28;19928;-78
2023/10/24 00:25:14;;;;;;;;;;;13.40;99.90;;;;;;5043362;28;20012;-77
2023/10/24 00:27:42;;;;;;;;;;;13.40;99.90;;;;;;5042617;28;19924;-78
2023/10/24 00:30:11;;;;;;;;;;;13.40;99.90;;;;;;5036982;28;19920;-78
2023/10/24 00:32:38;;;;;;;;;;;13.40;99.90;;;;;;5038845;28;19929;-77
2023/10/24 00:35:08;;;;;;;;;;;13.40;99.90;;;;;;5037523;28;19932;-76
2023/10/24 00:37:36;;;;;;;;;;;13.30;99.90;;;;;;5039270;28;19967;-76
2023/10/24 00:40:04;;;;;;;;;;;13.30;99.90;;;;;;5042624;28;19920;-76
2023/10/24 00:42:32;;;;;;;;;;;13.40;99.90;;;;;;5041024;28;20011;-76
2023/10/24 00:45:00;;;;;;;;;;;13.40;99.90;;;;;;5052038;28;19925;-77
2023/10/24 00:47:28;;;;;;;;;;;13.50;99.90;;;;;;5042629;28;20016;-76
2023/10/24 00:49:56;;;;;;;;;;;13.50;99.90;;;;;;5043725;28;19960;-78
2023/10/24 00:52:26;;;;;;;;;;;13.50;99.90;;;;;;5054600;28;20391;-79
2023/10/24 00:54:53;;;;;;;;;;;13.30;99.90;;;;;;5039133;28;19932;-81
2023/10/24 00:57:21;;;;;;;;;;;13.30;99.90;;;;;;5048386;28;19921;-80
2023/10/24 00:59:50;;;;;;;;;;;13.30;99.90;;;;;;5040081;28;19921;-79
2023/10/24 01:02:18;;;;;;;;;;;13.20;99.90;;;;;;5054271;28;19928;-79
2023/10/24 01:04:46;;;;;;;;;;;13.30;99.90;;;;;;5054327;28;19970;-78
2023/10/24 01:07:14;;;;;;;;;;;13.30;99.90;;;;;;5026167;28;19928;-78
2023/10/24 01:09:43;;;;;;;;;;;13.30;99.90;;;;;;5049757;28;19920;-79
2023/10/24 01:12:11;;;;;;;;;;;13.30;99.90;;;;;;5053741;28;20002;-79
2023/10/24 01:14:39;;;;;;;;;;;13.30;99.90;;;;;;5039036;28;20389;-80
2023/10/24 01:17:10;;;;;;;;;;;13.30;99.90;;;;;;5044979;28;19920;-80
2023/10/24 01:19:38;;;;;;;;;;;13.30;99.90;;;;;;5038596;28;20388;-77
2023/10/24 01:22:07;;;;;;;;;;;13.10;99.90;;;;;;5050245;28;19921;-77
2023/10/24 01:24:35;;;;;;;;;;;13.10;99.90;;;;;;5033738;28;19921;-77
2023/10/24 01:27:03;;;;;;;;;;;13.10;99.90;;;;;;5043669;28;19925;-79
2023/10/24 01:29:31;;;;;;;;;;;13.10;99.90;;;;;;5045188;28;19955;-77
2023/10/24 01:31:59;;;;;;;;;;;13.20;99.90;;;;;;5044986;28;19928;-78
2023/10/24 01:34:27;;;;;;;;;;;13.30;99.90;;;;;;5053388;28;20397;-78
2023/10/24 01:36:55;;;;;;;;;;;13.30;99.90;;;;;;5053106;28;20327;-79
2023/10/24 01:39:24;;;;;;;;;;;13.40;99.90;;;;;;5045004;28;20367;-79
2023/10/24 01:41:52;;;;;;;;;;;13.30;99.90;;;;;;5043725;28;19925;-80
2023/10/24 01:44:20;;;;;;;;;;;13.30;99.90;;;;;;5045110;28;19924;-78
2023/10/24 01:46:49;;;;;;;;;;;13.30;99.90;;;;;;5045490;28;20277;-78
2023/10/24 01:49:16;;;;;;;;;;;13.30;99.90;;;;;;5036845;28;20379;-78
2023/10/24 01:51:44;;;;;;;;;;;13.40;99.90;;;;;;5053023;28;20326;-80
2023/10/24 01:54:12;;;;;;;;;;;13.30;99.90;;;;;;5052684;28;19933;-78
2023/10/24 01:56:42;;;;;;;;;;;13.40;99.90;;;;;;5038218;28;19925;-78
2023/10/24 01:59:10;;;;;;;;;;;13.40;99.90;;;;;;5041008;28;19929;-79
2023/10/24 02:01:37;;;;;;;;;;;13.40;99.90;;;;;;5042047;28;20007;-78
2023/10/24 02:04:06;;;;;;;;;;;13.30;99.90;;;;;;5034380;28;19921;-77
2023/10/24 02:06:33;;;;;;;;;;;13.30;99.90;;;;;;5040822;28;19921;-78
2023/10/24 02:09:02;;;;;;;;;;;13.30;99.90;;;;;;5033950;28;19928;-79
2023/10/24 02:11:29;;;;;;;;;;;13.30;99.90;;;;;;5047772;28;20376;-77
2023/10/24 02:13:58;;;;;;;;;;;13.30;99.90;;;;;;5049521;28;19921;-77
2023/10/24 02:16:26;;;;;;;;;;;13.30;99.90;;;;;;5048082;28;19975;-78
2023/10/24 02:18:54;;;;;;;;;;;13.30;99.90;;;;;;5048685;28;20058;-78
2023/10/24 02:21:22;;;;;;;;;;;13.30;99.90;;;;;;5048870;28;19921;-77
2023/10/24 02:23:50;;;;;;;;;;;13.30;99.90;;;;;;5048579;28;19967;-76
2023/10/24 02:26:17;;;;;;;;;;;13.30;99.90;;;;;;5040745;28;20355;-75
2023/10/24 02:28:45;;;;;;;;;;;13.30;99.90;;;;;;5040665;28;19920;-75
2023/10/24 02:31:15;;;;;;;;;;;13.40;99.90;;;;;;5051133;28;19964;-76
2023/10/24 02:33:43;;;;;;;;;;;13.40;99.90;;;;;;5037506;28;19925;-77
2023/10/24 02:36:11;;;;;;;;;;;13.50;99.90;;;;;;5048558;28;19979;-76
2023/10/24 02:38:39;;;;;;;;;;;13.50;99.90;;;;;;5032355;28;19925;-76
2023/10/24 02:41:06;;;;;;;;;;;13.50;99.90;;;;;;5033615;28;19925;-76
2023/10/24 02:43:34;;;;;;;;;;;13.50;99.90;;;;;;5051030;28;19986;-74
2023/10/24 02:46:03;;;;;;;;;;;13.50;99.90;;;;;;5042953;28;20383;-75
2023/10/24 02:48:32;;;;;;;;;;;13.60;99.90;;;;;;5045222;28;19925;-75
2023/10/24 02:51:00;;;;;;;;;;;13.50;99.90;;;;;;5051455;28;19928;-79
2023/10/24 02:53:28;;;;;;;;;;;13.50;99.90;;;;;;5035954;28;19921;-78
2023/10/24 02:55:56;;;;;;;;;;;13.50;99.90;;;;;;5051885;28;19924;-78
2023/10/24 02:58:23;;;;;;;;;;;13.40;99.90;;;;;;5024108;28;19975;-78
2023/10/24 03:00:51;;;;;;;;;;;13.40;99.90;;;;;;5044677;28;20346;-78
2023/10/24 03:03:19;;;;;;;;;;;13.30;99.90;;;;;;5040273;28;19921;-78
2023/10/24 03:05:48;;;;;;;;;;;13.30;99.90;;;;;;5046866;28;19920;-76
2023/10/24 03:08:16;;;;;;;;;;;13.30;99.90;;;;;;5051696;28;19921;-77
2023/10/24 03:10:44;;;;;;;;;;;13.20;99.90;;;;;;5051732;28;19920;-78
2023/10/24 03:13:12;;;;;;;;;;;13.10;99.90;;;;;;5052511;28;19929;-77
2023/10/24 03:15:41;;;;;;;;;;;13.20;99.90;;;;;;5046941;28;19921;-80
2023/10/24 03:18:08;;;;;;;;;;;13.10;99.90;;;;;;5038365;28;19928;-79
2023/10/24 03:20:39;;;;;;;;;;;13.10;99.90;;;;;;5053843;28;19958;-80
2023/10/24 03:23:10;;;;;;;;;;;13.00;99.90;;;;;;5052943;28;19943;-83
2023/10/24 03:25:40;;;;;;;;;;;13.00;99.90;;;;;;5046829;28;19920;-83
2023/10/24 03:28:08;;;;;;;;;;;13.00;99.90;;;;;;5036860;28;19935;-80
2023/10/24 03:30:36;;;;;;;;;;;13.00;99.90;;;;;;5048127;28;19921;-80
2023/10/24 03:33:04;;;;;;;;;;;13.00;99.90;;;;;;5041446;28;20015;-82
2023/10/24 03:35:33;;;;;;;;;;;13.00;99.90;;;;;;5040304;28;19931;-77
2023/10/24 03:38:01;;;;;;;;;;;13.00;99.90;;;;;;5039570;28;19921;-78
2023/10/24 03:40:30;;;;;;;;;;;13.10;99.90;;;;;;5027541;28;19928;-77
2023/10/24 03:42:58;;;;;;;;;;;13.00;99.90;;;;;;5051253;28;19921;-77
2023/10/24 03:45:26;;;;;;;;;;;13.00;99.90;;;;;;5039464;28;19921;-76
2023/10/24 03:47:54;;;;;;;;;;;12.90;99.90;;;;;;5046756;28;20418;-77
2023/10/24 03:50:22;;;;;;;;;;;12.90;99.90;;;;;;5042542;28;19931;-77
2023/10/24 03:52:49;;;;;;;;;;;12.90;99.90;;;;;;5042959;28;20291;-77
2023/10/24 03:55:17;;;;;;;;;;;12.90;99.90;;;;;;5034397;28;20007;-77
2023/10/24 03:57:46;;;;;;;;;;;12.90;99.90;;;;;;5042808;28;19932;-76
2023/10/24 04:00:14;;;;;;;;;;;12.90;99.90;;;;;;5034701;28;20358;-79
2023/10/24 04:02:42;;;;;;;;;;;13.00;99.90;;;;;;5045694;28;19925;-78
2023/10/24 04:05:10;;;;;;;;;;;13.00;99.90;;;;;;5034325;28;20352;-78
2023/10/24 04:07:38;;;;;;;;;;;13.10;99.90;;;;;;5050118;28;20394;-77
2023/10/24 04:10:07;;;;;;;;;;;13.10;99.90;;;;;;5043306;28;19964;-77
2023/10/24 04:12:35;;;;;;;;;;;13.10;99.90;;;;;;5044717;28;19927;-79
2023/10/24 04:15:05;;;;;;;;;;;13.10;99.90;;;;;;5053796;28;19982;-77
2023/10/24 04:17:33;;;;;;;;;;;13.20;99.90;;;;;;5050865;28;19921;-77
2023/10/24 04:20:01;;;;;;;;;;;13.10;99.90;;;;;;5041907;28;20334;-79
2023/10/24 04:22:29;;;;;;;;;;;13.20;99.90;;;;;;5027477;28;20428;-78
2023/10/24 04:24:57;;;;;;;;;;;13.20;99.90;;;;;;5025254;28;19940;-79
2023/10/24 04:27:25;;;;;;;;;;;13.20;99.90;;;;;;5026251;28;19936;-81
2023/10/24 04:29:52;;;;;;;;;;;13.20;99.90;;;;;;5025232;28;19975;-82
2023/10/24 04:32:21;;;;;;;;;;;13.20;99.90;;;;;;5024672;28;19999;-79
2023/10/24 04:34:51;;;;;;;;;;;13.20;99.90;;;;;;5025257;28;19972;-82
2023/10/24 04:37:19;;;;;;;;;;;13.20;99.90;;;;;;5025513;28;19921;-82
2023/10/24 04:39:47;;;;;;;;;;;13.20;99.90;;;;;;5025376;28;19920;-79
2023/10/24 04:42:15;;;;;;;;;;;13.20;99.90;;;;;;5023820;28;20388;-78
2023/10/24 04:44:43;;;;;;;;;;;13.20;99.90;;;;;;5025235;28;20424;-83
2023/10/24 04:47:11;;;;;;;;;;;13.20;99.90;;;;;;5025292;28;19928;-80
2023/10/24 04:49:40;;;;;;;;;;;13.10;99.90;;;;;;5024814;28;19929;-80
2023/10/24 04:52:08;;;;;;;;;;;13.10;99.90;;;;;;5023261;28;19963;-81
2023/10/24 04:54:36;;;;;;;;;;;13.10;99.90;;;;;;5025943;28;19929;-80
2023/10/24 04:57:04;;;;;;;;;;;13.00;99.90;;;;;;5024743;28;19944;-81
2023/10/24 04:59:33;;;;;;;;;;;13.00;99.90;;;;;;5025096;28;20693;-80
2023/10/24 05:02:00;;;;;;;;;;;13.00;99.90;;;;;;5023186;28;19932;-80
2023/10/24 05:04:28;;;;;;;;;;;13.10;99.90;;;;;;5024516;28;19935;-80
2023/10/24 05:06:57;;;;;;;;;;;13.10;99.90;;;;;;5024862;28;19929;-78
2023/10/24 05:09:25;;;;;;;;;;;13.00;99.90;;;;;;5025069;28;19936;-77
2023/10/24 05:11:53;;;;;;;;;;;13.00;99.90;;;;;;5023017;28;19932;-79
2023/10/24 05:14:21;;;;;;;;;;;12.90;99.90;;;;;;5025089;28;19936;-79
2023/10/24 05:16:49;;;;;;;;;;;12.90;99.90;;;;;;5022800;28;19940;-81
2023/10/24 05:19:17;;;;;;;;;;;12.90;99.90;;;;;;5024634;28;19974;-80
2023/10/24 05:21:44;;;;;;;;;;;12.90;99.90;;;;;;5022906;28;19998;-80
2023/10/24 05:24:14;;;;;;;;;;;13.00;99.90;;;;;;5024606;28;19929;-79
2023/10/24 05:26:41;;;;;;;;;;;12.90;99.90;;;;;;5024654;28;20281;-82
2023/10/24 05:29:09;;;;;;;;;;;13.00;99.90;;;;;;5024551;28;19929;-78
2023/10/24 05:31:37;;;;;;;;;;;12.90;99.90;;;;;;5023052;28;19929;-79
2023/10/24 05:34:05;;;;;;;;;;;13.00;99.90;;;;;;5024286;28;19928;-82
2023/10/24 05:36:33;;;;;;;;;;;13.00;99.90;;;;;;5024283;28;19928;-80
2023/10/24 05:39:01;;;;;;;;;;;13.10;99.90;;;;;;5023589;28;19933;-80
2023/10/24 05:41:31;;;;;;;;;;;13.10;99.90;;;;;;5022949;28;19929;-78
2023/10/24 05:43:58;;;;;;;;;;;13.10;99.90;;;;;;5023959;28;19982;-80
2023/10/24 05:46:26;;;;;;;;;;;13.00;99.90;;;;;;5023692;28;19964;-77
2023/10/24 05:48:54;;;;;;;;;;;13.10;99.90;;;;;;5023683;28;19944;-78
2023/10/24 05:51:22;;;;;;;;;;;13.00;99.90;;;;;;5021891;28;19955;-80
2023/10/24 05:53:50;;;;;;;;;;;13.10;99.90;;;;;;5024250;28;20471;-80
2023/10/24 05:56:18;;;;;;;;;;;13.10;99.90;;;;;;5022934;28;19925;-80
2023/10/24 05:58:47;;;;;;;;;;;13.10;99.90;;;;;;5024102;28;19925;-80
2023/10/24 06:01:15;;;;;;;;;;;13.10;99.90;;;;;;5022167;28;19949;-79
2023/10/24 06:03:43;;;;;;;;;;;13.10;99.90;;;;;;5023134;28;20027;-77
2023/10/24 06:06:11;;;;;;;;;;;13.10;99.90;;;;;;5023066;28;19925;-80
2023/10/24 06:08:40;;;;;;;;;;;13.10;99.90;;;;;;5023358;28;19929;-79
2023/10/24 06:11:07;;;;;;;;;;;13.00;99.90;;;;;;5021133;28;19936;-78
2023/10/24 06:13:36;;;;;;;;;;;13.00;99.90;;;;;;5023038;28;19936;-79
2023/10/24 06:16:09;;;;;;;;;;;13.00;99.90;;;;;;5022442;28;20459;-77
2023/10/24 06:18:37;;;;;;;;;;;12.90;99.90;;;;;;5037206;28;19982;-78
2023/10/24 06:21:05;;;;;;;;;;;12.90;99.90;;;;;;5066388;22;19929;-66
2023/10/24 06:23:33;;;;;;;;;;;12.80;99.90;;;;;;5050586;28;20384;-66
2023/10/24 06:26:01;;;;;;;;;;;12.80;99.90;;;;;;5052162;28;19920;-66
2023/10/24 06:28:29;;;;;;;;;;;12.80;99.90;;;;;;5051460;28;20011;-66
2023/10/24 06:30:57;;;;;;;;;;;12.80;99.90;;;;;;5052152;28;20019;-66
2023/10/24 06:33:27;;;;;;;;;;;12.70;99.90;;;;;;5052172;28;19924;-66
2023/10/24 06:35:55;;;;;;;;;;;12.60;99.90;;;;;;5052152;28;20011;-66
2023/10/24 06:38:23;;;;;;;;;;;12.60;99.90;;;;;;5052078;28;19921;-66
2023/10/24 06:40:51;;;;;;;;;;;12.60;99.90;;;;;;5051787;28;19978;-66
2023/10/24 06:43:19;;;;;;;;;;;12.50;99.90;;;;;;5051921;28;20354;-66
2023/10/24 06:45:47;;;;;;;;;;;12.40;99.90;;;;;;5052287;28;19975;-66
2023/10/24 06:48:15;;;;;;;;;;;12.50;99.90;;;;;;5052081;28;19920;-65
2023/10/24 06:50:44;;;;;;;;;;;12.40;99.90;;;;;;5051613;28;19966;-66
2023/10/24 06:53:12;;;;;;;;;;;12.50;99.90;;;;;;5051826;28;19921;-66
2023/10/24 06:55:40;;;;;;;;;;;12.50;99.90;;;;;;5051642;28;20292;-66
2023/10/24 06:58:08;;;;;;;;;;;12.50;99.90;;;;;;5051811;28;20391;-66
2023/10/24 07:00:36;;;;;;;;;;;12.50;99.90;;;;;;5051502;28;19920;-66
2023/10/24 07:03:04;;;;;;;;;;;12.50;99.90;;;;;;5051809;28;19921;-66
2023/10/24 07:05:32;;;;;;;;;;;12.50;99.90;;;;;;5051542;28;19925;-66
2023/10/24 07:08:02;;;;;;;;;;;12.50;99.90;;;;;;5051674;28;19928;-66
2023/10/24 07:10:33;;;;;;;;;;;12.50;99.90;;;;;;5051236;28;20398;-66
2023/10/24 07:13:01;;;;;;;;;;;12.60;99.90;;;;;;5051706;28;19975;-66
2023/10/24 07:15:28;;;;;;;;;;;12.60;99.90;;;;;;5051329;28;20003;-66
2023/10/24 07:17:56;;;;;;;;;;;12.60;99.90;;;;;;5051410;28;19991;-67
2023/10/24 07:20:24;;;;;;;;;;;12.60;99.90;;;;;;5050789;28;20027;-66
2023/10/24 07:22:52;;;;;;;;;;;12.60;99.90;;;;;;5051701;28;19921;-66
2023/10/24 07:25:21;;;;;;;;;;;12.50;99.90;;;;;;5051368;28;19925;-66
2023/10/24 07:27:52;;;;;;;;;;;12.60;99.90;;;;;;5051445;28;20299;-66
2023/10/24 07:30:21;;;;;;;;;;;12.60;99.90;;;;;;5051269;28;19920;-66
2023/10/24 07:32:49;;;;;;;;;;;12.70;99.90;;;;;;5043360;28;19921;-66
2023/10/24 07:35:17;;;;;;;;;;;12.80;99.90;;;;;;5051226;28;20284;-66
2023/10/24 07:37:45;;;;;;;;;;;12.80;99.90;;;;;;5050917;28;19920;-66
2023/10/24 07:40:13;;;;;;;;;;;12.70;99.90;;;;;;5051202;28;20023;-66
2023/10/24 07:42:42;;;;;;;;;;;12.70;99.90;;;;;;5051119;28;20288;-67
2023/10/24 07:45:11;;;;;;;;;;;12.70;99.90;;;;;;5051317;28;20376;-66
2023/10/24 07:47:39;;;;;;;;;;;12.70;99.90;;;;;;5050969;28;20004;-66
2023/10/24 07:50:08;;;;;;;;;;;12.70;99.90;;;;;;5050956;28;19927;-66
2023/10/24 07:52:36;;;;;;;;;;;12.70;99.90;;;;;;5050944;28;19921;-64
2023/10/24 07:55:04;;;;;;;;;;;12.70;99.90;;;;;;5051134;28;19921;-67
2023/10/24 07:57:32;;;;;;;;;;;12.70;99.90;;;;;;5050968;28;19928;-66
2023/10/24 08:00:01;;;;;;;;;;;12.60;99.90;;;;;;5050724;28;19999;-66
2023/10/24 08:02:28;;;;;;;;;;;12.60;99.90;;;;;;5050869;28;19925;-66
2023/10/24 08:04:56;;;;;;;;;;;12.60;99.90;;;;;;5051106;28;20015;-67
2023/10/24 08:07:24;;;;;;;;;;;12.60;99.90;;;;;;5051264;28;19929;-67
2023/10/24 08:09:52;;;;;;;;;;;12.60;99.90;;;;;;5042694;28;19927;-66
2023/10/24 08:12:20;;;;;;;;;;;12.50;99.90;;;;;;5050863;28;19974;-66
2023/10/24 08:14:47;;;;;;;;;;;12.60;99.90;;;;;;5050688;28;19924;-66
2023/10/24 08:17:16;;;;;;;;;;;12.60;99.90;;;;;;5050878;28;19927;-67
2023/10/24 08:19:45;;;;;;;;;;;12.60;99.90;;;;;;5050652;28;20358;-67
2023/10/24 08:22:13;;;;;;;;;;;12.60;99.90;;;;;;5050753;28;19928;-66
2023/10/24 08:24:41;;;;;;;;;;;12.60;99.90;;;;;;5050625;28;20346;-67
2023/10/24 08:27:09;;;;;;;;;;;12.60;99.90;;;;;;5050787;28;20007;-64
2023/10/24 08:29:39;;;;;;;;;;;12.70;99.90;;;;;;5050484;28;20418;-65
2023/10/24 08:32:07;;;;;;;;;;;12.60;99.90;;;;;;5050720;28;20391;-65
2023/10/24 08:34:43;;;;;;;;;;;12.60;99.90;;;;;;5050547;28;19925;-65
2023/10/24 08:37:12;;;;;;;;;;;12.70;99.90;;;;;;5050654;28;20014;-65
2023/10/24 08:39:39;;;;;;;;;;;12.70;99.90;;;;;;5050367;28;19978;-64
2023/10/24 08:42:10;;;;;;;;;;;12.70;99.90;;;;;;5050594;28;19975;-64
2023/10/24 08:44:39;;;;;;;;;;;12.60;99.90;;;;;;5050562;28;20417;-64
2023/10/24 08:47:08;;;;;;;;;;;12.60;99.90;;;;;;5050731;28;19920;-65
2023/10/24 08:49:37;;;;;;;;;;;12.50;99.90;;;;;;5050276;28;19928;-65
2023/10/24 08:52:06;;;;;;;;;;;12.60;99.90;;;;;;5053938;28;19924;-67
2023/10/24 08:54:51;;;;;;;;;;;12.60;99.90;;;;;;5053958;28;20016;-67
2023/10/24 08:57:22;;;;;;;;;;;12.60;99.90;;;;;;5054056;28;20033;-66
2023/10/24 08:59:51;;;;;;;;;;;12.60;99.90;;;;;;5053627;28;19924;-67
2023/10/24 09:02:19;;;;;;;;;;;12.70;99.90;;;;;;5054517;28;20367;-66
2023/10/24 09:04:48;;;;;;;;;;;12.80;99.90;;;;;;5053762;28;20305;-66
2023/10/24 09:07:17;;;;;;;;;;;12.80;99.90;;;;;;5053923;28;20460;-66
2023/10/24 09:09:45;;;;;;;;;;;12.80;99.90;;;;;;5053556;28;19921;-66
2023/10/24 09:12:15;;;;;;;;;;;12.80;99.90;;;;;;5053826;28;20395;-66
2023/10/24 09:14:45;;;;;;;;;;;12.70;99.90;;;;;;5053522;28;19924;-66
2023/10/24 09:17:22;;;;;;;;;;;12.80;99.90;;;;;;5053866;28;20205;-67
2023/10/24 09:19:50;;;;;;;;;;;12.70;99.90;;;;;;5053197;28;19927;-66
2023/10/24 09:22:19;;;;;;;;;;;12.80;99.90;;;;;;5053575;28;19986;-67
2023/10/24 09:24:47;;;;;;;;;;;12.80;99.90;;;;;;5053330;28;20411;-65
2023/10/24 09:27:16;;;;;;;;;;;12.80;99.90;;;;;;5053530;28;19921;-67
2023/10/24 09:29:44;;;;;;;;;;;12.80;99.90;;;;;;5053049;28;20123;-66
2023/10/24 09:32:14;;;;;;;;;;;12.80;99.90;;;;;;5053399;28;19920;-66
2023/10/24 09:34:43;;;;;;;;;;;12.80;99.90;;;;;;5053357;28;19963;-66
2023/10/24 09:37:13;;;;;;;;;;;12.70;99.90;;;;;;5053411;28;20374;-67
2023/10/24 09:39:55;;;;;;;;;;;12.80;99.90;;;;;;5052932;28;19925;-66
2023/10/24 09:42:25;;;;;;;;;;;12.90;99.90;;;;;;5053743;28;19956;-67
2023/10/24 09:44:59;;;;;;;;;;;12.80;99.90;;;;;;5053137;28;19921;-65
2023/10/24 09:47:27;;;;;;;;;;;12.80;99.90;;;;;;5053158;28;19924;-66
2023/10/24 09:49:55;;;;;;;;;;;12.90;99.90;;;;;;5052679;28;19931;-66
2023/10/24 09:52:24;;;;;;;;;;;12.90;99.90;;;;;;5052965;28;19921;-67
2023/10/24 09:54:52;;;;;;;;;;;12.90;99.90;;;;;;5052769;28;19921;-66
2023/10/24 09:57:22;;;;;;;;;;;13.00;99.90;;;;;;5053018;28;19927;-67
2023/10/24 09:59:54;;;;;;;;;;;13.00;99.90;;;;;;5052560;28;20292;-66
2023/10/24 10:02:23;;;;;;;;;;;13.00;99.90;;;;;;5051663;28;19921;-67
2023/10/24 10:04:51;;;;;;;;;;;13.00;99.90;;;;;;5052507;28;19946;-67
2023/10/24 10:07:20;;;;;;;;;;;13.00;99.90;;;;;;5052735;28;19921;-67
2023/10/24 10:09:51;;;;;;;;;;;13.00;99.90;;;;;;5052556;28;19921;-66
2023/10/24 10:12:19;;;;;;;;;;;13.00;99.90;;;;;;5052746;28;20333;-67
2023/10/24 10:15:04;;;;;;;;;;;13.00;99.90;;;;;;5052471;28;20334;-64
2023/10/24 10:17:36;;;;;;;;;;;13.10;99.90;;;;;;5052106;28;19974;-66
2023/10/24 10:20:14;;;;;;;;;;;13.10;99.90;;;;;;5052118;28;19920;-67
2023/10/24 10:22:48;;;;;;;;;;;13.00;99.90;;;;;;5052207;28;19921;-67
2023/10/24 10:25:49;;;;;;;;;;;13.10;99.90;;;;;;5052585;28;20374;-66
2023/10/24 10:28:24;;;;;;;;;;;13.10;99.90;;;;;;5046017;28;19921;-67
2023/10/24 10:30:57;;;;;;;;;;;13.10;99.90;;;;;;5051845;28;19951;-66
2023/10/24 10:33:46;;;;;;;;;;;13.10;99.90;;;;;;5052130;28;19920;-66
2023/10/24 10:36:15;;;;;;;;;;;13.10;99.90;;;;;;5052214;28;19927;-66
2023/10/24 10:38:44;;;;;;;;;;;13.10;99.90;;;;;;5051970;28;19921;-67
2023/10/24 10:41:32;;;;;;;;;;;13.20;99.90;;;;;;5052544;28;19921;-66
2023/10/24 10:44:01;;;;;;;;;;;13.10;99.90;;;;;;5052008;28;19947;-66
2023/10/24 10:46:30;;;;;;;;;;;13.20;99.90;;;;;;5052028;28;19927;-67
2023/10/24 10:49:00;;;;;;;;;;;13.20;99.90;;;;;;5051523;28;19932;-67
2023/10/24 10:51:29;;;;;;;;;;;13.20;99.90;;;;;;5051894;28;19929;-67
2023/10/24 10:54:01;;;;;;;;;;;13.30;99.90;;;;;;5051542;28;19927;-66
2023/10/24 10:56:30;;;;;;;;;;;13.30;99.90;;;;;;5051917;28;19998;-67
2023/10/24 10:59:13;;;;;;;;;;;13.40;99.90;;;;;;5051333;28;20421;-66
2023/10/24 11:01:51;;;;;;;;;;;13.30;99.90;;;;;;5048857;28;20403;-67
2023/10/24 11:04:21;;;;;;;;;;;13.20;99.90;;;;;;5051774;28;20053;-67
2023/10/24 11:06:52;;;;;;;;;;;13.20;99.90;;;;;;5051547;28;19963;-67
2023/10/24 11:09:21;;;;;;;;;;;13.10;99.90;;;;;;5051650;28;20005;-64
2023/10/24 11:12:09;;;;;;;;;;;13.10;99.90;;;;;;5051258;28;19990;-66
2023/10/24 11:14:37;;;;;;;;;;;13.10;99.90;;;;;;5051169;28;19963;-66
2023/10/24 11:17:05;;;;;;;;;;;13.00;99.90;;;;;;5051364;28;20336;-67
2023/10/24 11:19:35;;;;;;;;;;;12.90;99.90;;;;;;5051313;28;19967;-67
2023/10/24 11:22:03;;;;;;;;;;;12.90;99.90;;;;;;5050882;28;20425;-66
2023/10/24 11:24:31;;;;;;;;;;;12.80;99.90;;;;;;5051329;28;19997;-66
2023/10/24 11:27:00;;;;;;;;;;;12.80;99.90;;;;;;5051188;28;19966;-66
2023/10/24 11:29:28;;;;;;;;;;;12.80;99.90;;;;;;5051335;28;19982;-66
2023/10/24 11:31:58;;;;;;;;;;;12.80;99.90;;;;;;5051023;28;20460;-66
2023/10/24 11:34:26;;;;;;;;;;;12.90;99.90;;;;;;5051221;28;19963;-66
2023/10/24 11:36:55;;;;;;;;;;;12.80;99.90;;;;;;5051042;28;20367;-65
2023/10/24 11:39:23;;;;;;;;;;;12.80;99.90;;;;;;5051338;28;19959;-66
2023/10/24 11:41:51;;;;;;;;;;;12.80;99.90;;;;;;5051324;28;20301;-66
2023/10/24 11:44:19;;;;;;;;;;;12.80;99.90;;;;;;5051332;28;20318;-68
2023/10/24 11:46:47;;;;;;;;;;;12.80;99.90;;;;;;5051049;28;19966;-64
2023/10/24 11:49:14;;;;;;;;;;;12.90;99.90;;;;;;5051157;28;20324;-64
2023/10/24 11:51:43;;;;;;;;;;;12.80;99.90;;;;;;5051310;28;19963;-66
2023/10/24 11:54:13;;;;;;;;;;;12.80;99.90;;;;;;5051133;28;19966;-66
2023/10/24 11:56:41;;;;;;;;;;;12.80;99.90;;;;;;5051067;28;19966;-66
2023/10/24 11:59:11;;;;;;;;;;;12.80;99.90;;;;;;5050748;28;20355;-67
2023/10/24 12:01:42;;;;;;;;;;;12.80;99.90;;;;;;5050844;28;20004;-65
2023/10/24 12:04:12;;;;;;;;;;;12.70;99.90;;;;;;5050729;28;19963;-66
2023/10/24 12:06:40;;;;;;;;;;;12.80;99.90;;;;;;5051122;28;19958;-67
2023/10/24 12:09:08;;;;;;;;;;;12.70;99.90;;;;;;5050718;28;20020;-67
2023/10/24 12:11:38;;;;;;;;;;;12.70;99.90;;;;;;5051034;28;19962;-65
2023/10/24 12:14:06;;;;;;;;;;;12.70;99.90;;;;;;5050715;28;19974;-66
2023/10/24 12:16:35;;;;;;;;;;;12.70;99.90;;;;;;5050917;28;19966;-66
2023/10/24 12:19:22;;;;;;;;;;;12.70;99.90;;;;;;5043711;28;19959;-65
2023/10/24 12:21:50;;;;;;;;;;;12.80;99.90;;;;;;5050973;28;19958;-66
2023/10/24 12:24:18;;;;;;;;;;;12.80;99.90;;;;;;5050909;28;19958;-65
2023/10/24 12:26:47;;;;;;;;;;;12.80;99.90;;;;;;5053996;28;19981;-66
2023/10/24 12:29:15;;;;;;;;;;;12.90;99.90;;;;;;5054621;28;20028;-66
2023/10/24 12:31:42;;;;;;;;;;;13.00;99.90;;;;;;5054746;28;19963;-66
2023/10/24 12:34:12;;;;;;;;;;;13.00;99.90;;;;;;5054360;28;20382;-66
2023/10/24 12:36:40;;;;;;;;;;;13.10;99.90;;;;;;5054646;28;19959;-66
2023/10/24 12:39:08;;;;;;;;;;;13.10;99.90;;;;;;5054081;28;19970;-66
2023/10/24 12:41:36;;;;;;;;;;;13.10;99.90;;;;;;5054374;28;19963;-66
2023/10/24 12:44:05;;;;;;;;;;;13.20;99.90;;;;;;5054423;28;19967;-68
2023/10/24 12:46:33;;;;;;;;;;;13.30;99.90;;;;;;5054280;28;19959;-65
2023/10/24 12:49:01;;;;;;;;;;;13.30;99.90;;;;;;5053980;28;20012;-66
2023/10/24 12:51:30;;;;;;;;;;;13.30;99.90;;;;;;5054161;28;20489;-64
2023/10/24 12:53:57;;;;;;;;;;;13.30;99.90;;;;;;5053958;28;19963;-66
2023/10/24 12:56:25;;;;;;;;;;;13.20;99.90;;;;;;5054334;28;19965;-66
2023/10/24 12:58:54;;;;;;;;;;;13.30;99.90;;;;;;5053747;28;20372;-65
2023/10/24 13:01:24;;;;;;;;;;;13.30;99.90;;;;;;5053893;28;20013;-65
2023/10/24 13:03:53;;;;;;;;;;;13.20;99.90;;;;;;5053833;28;20052;-67
2023/10/24 13:06:22;;;;;;;;;;;13.20;99.90;;;;;;5053921;28;20071;-66
2023/10/24 13:08:50;;;;;;;;;;;13.20;99.90;;;;;;5053806;28;20433;-66
2023/10/24 13:11:17;;;;;;;;;;;13.20;99.90;;;;;;5053727;28;19962;-66
2023/10/24 13:13:46;;;;;;;;;;;13.30;99.90;;;;;;5053922;28;20049;-66
2023/10/24 13:16:14;;;;;;;;;;;13.20;99.90;;;;;;5035593;28;19967;-66
2023/10/24 13:18:43;;;;;;;;;;;13.20;99.90;;;;;;5053863;28;19959;-65
2023/10/24 13:21:11;;;;;;;;;;;13.30;99.90;;;;;;5053241;28;20235;-65
2023/10/24 13:23:38;;;;;;;;;;;13.30;99.90;;;;;;5053642;28;20073;-66
2023/10/24 13:26:06;;;;;;;;;;;13.30;99.90;;;;;;5053427;28;20053;-66
2023/10/24 13:28:34;;;;;;;;;;;13.40;99.90;;;;;;5053975;28;20370;-66
2023/10/24 13:31:02;;;;;;;;;;;13.40;99.90;;;;;;5053098;28;19959;-66
2023/10/24 13:33:44;;;;;;;;;;;13.40;99.90;;;;;;5053433;28;19963;-66
2023/10/24 13:36:16;;;;;;;;;;;13.50;99.90;;;;;;5053065;28;20425;-66
2023/10/24 13:38:49;;;;;;;;;;;13.50;99.90;;;;;;5053293;28;19970;-64
2023/10/24 13:41:17;;;;;;;;;;;13.50;99.90;;;;;;5052941;28;19959;-65
2023/10/24 13:43:45;;;;;;;;;;;13.50;99.90;;;;;;5053168;28;20375;-66
2023/10/24 13:46:13;;;;;;;;;;;13.50;99.90;;;;;;5052942;28;20053;-65
2023/10/24 13:48:41;;;;;;;;;;;13.50;99.90;;;;;;5053339;28;20049;-68
2023/10/24 13:51:10;;;;;;;;;;;13.50;99.90;;;;;;5053037;28;20017;-66
2023/10/24 13:53:39;;;;;;;;;;;13.50;99.90;;;;;;5053103;28;19959;-64
2023/10/24 13:56:07;;;;;;;;;;;13.50;99.90;;;;;;5052807;28;19970;-65
2023/10/24 13:58:35;;;;;;;;;;;13.40;99.90;;;;;;5053057;28;19965;-66
2023/10/24 14:01:03;;;;;;;;;;;13.40;99.90;;;;;;5052505;28;20045;-65
2023/10/24 14:03:31;;;;;;;;;;;13.40;99.90;;;;;;5053053;28;20045;-65
2023/10/24 14:05:59;;;;;;;;;;;13.40;99.90;;;;;;5053007;28;19974;-65
2023/10/24 14:08:28;;;;;;;;;;;13.40;99.90;;;;;;5052865;28;20013;-65
2023/10/24 14:10:56;;;;;;;;;;;13.40;99.90;;;;;;5052457;28;20004;-66
2023/10/24 14:13:24;;;;;;;;;;;13.50;99.90;;;;;;5044581;28;19984;-66
2023/10/24 14:15:51;;;;;;;;;;;13.40;99.90;;;;;;5052648;28;20408;-65
2023/10/24 14:18:19;;;;;;;;;;;13.50;99.90;;;;;;5052458;28;20065;-65
2023/10/24 14:20:47;;;;;;;;;;;13.40;99.90;;;;;;5052042;28;20346;-65
2023/10/24 14:23:17;;;;;;;;;;;13.40;99.90;;;;;;5052306;28;19963;-65
2023/10/24 14:25:46;;;;;;;;;;;13.30;99.90;;;;;;5052410;28;20028;-66